Roza A — TCRB7 — position and weather

sailwx.info

Track history (hours):
 
Tides and Currents Weather Stations Pressure Air Temp Water Temp Dewpoint Dewpoint Depression Visibility Wind Speed Wind Dir Waves Ship Positions

Roza A

Last reported at 2016-Aug-29 12:20 UTC. Time now 2016-Aug-30 20:48 UTC.
Position N 33°12' E 032°03'.

Length 169 m; draft 6.6 m.

Type: Ship (hazmat cat A). MMSI: 271001057.

Date/timePositionNaut miles runAvg speedWind from/ knotsBaromVisibWave heightAir tempDewpointWater temp
2016-Aug-29 12:20N 33°12' E 032°03'10315.1
2016-Aug-29 05:32N 34°19' E 033°37'  
2016-Aug-26 16:24N 36°44' E 034°39'0 0.0
2016-Aug-26 11:33N 36°44' E 034°39'0 0.0
2016-Aug-26 10:34N 36°44' E 034°39'9415.3
2016-Aug-26 04:25N 35°10' E 034°58'1416.2
2016-Aug-26 03:33N 34°57' E 035°00'1615.9
2016-Aug-26 02:31N 34°41' E 035°04'1615.8
2016-Aug-26 01:29N 34°24' E 035°07'1415.4
2016-Aug-26 00:33N 34°10' E 035°09'1514.8
2016-Aug-25 23:33N 33°56' E 035°13'1612.6
2016-Aug-25 22:18N 33°55' E 035°32'30 2.0
2016-Aug-25 07:24N 33°50' E 034°57'4315.0
2016-Aug-25 04:33N 33°32' E 034°10'1615.2
2016-Aug-25 03:30N 33°25' E 033°53'1515.5
2016-Aug-25 02:34N 33°19' E 033°37'1515.0
2016-Aug-25 01:33N 33°12' E 033°21'1515.0
2016-Aug-25 00:32N 33°06' E 033°04'1815.3
2016-Aug-24 23:21N 32°58' E 032°44'1415.5
2016-Aug-24 22:27N 32°53' E 032°29'1715.6
2016-Aug-24 21:22N 32°46' E 032°11'1315.5
2016-Aug-24 20:33N 32°40' E 031°57'1515.2
2016-Aug-24 19:33N 32°34' E 031°41'1515.0
2016-Aug-24 18:33N 32°27' E 031°25'1615.4
2016-Aug-24 17:33N 32°21' E 031°08'2315.6
2016-Aug-24 16:04N 32°11' E 030°44'915.6
2016-Aug-24 15:28N 32°08' E 030°33'1715.3
2016-Aug-24 14:22N 31°57' E 030°18'1215.1
2016-Aug-24 13:33N 31°49' E 030°07'42 2.8
2016-Aug-23 22:17N 31°51' E 029°18'1114.3
2016-Aug-23 21:31N 32°01' E 029°11'1414.6
2016-Aug-23 20:33N 32°13' E 029°02'34615.0
2016-Aug-22 21:30N 36°31' E 024°23'1314.2
2016-Aug-22 20:33N 36°41' E 024°12'1515.0
2016-Aug-22 19:33N 36°55' E 024°05'1514.9
2016-Aug-22 18:33N 37°08' E 023°58'1514.7
2016-Aug-22 17:33N 37°22' E 023°51'1514.6
2016-Aug-22 16:33N 37°36' E 023°44'1515.3
2016-Aug-22 15:33N 37°50' E 023°37'8 7.6
2016-Aug-22 14:33N 37°57' E 023°35'0 0.0
2016-Aug-22 13:31N 37°57' E 023°35'0 0.0
2016-Aug-22 12:28N 37°57' E 023°35'0 0.0
2016-Aug-22 11:31N 37°57' E 023°35'0 0.0
2016-Aug-22 10:31N 37°57' E 023°35'0 0.0
2016-Aug-22 09:31N 37°57' E 023°35'0 0.0
2016-Aug-22 08:31N 37°57' E 023°35'0 0.0
2016-Aug-22 07:31N 37°57' E 023°35'0 0.0
2016-Aug-22 06:31N 37°57' E 023°35'0 0.0
2016-Aug-22 05:31N 37°57' E 023°35'1 1.3
2016-Aug-22 04:33N 37°56' E 023°35'3 3.2
2016-Aug-22 03:33N 37°53' E 023°33'0 0.1
2016-Aug-22 02:32N 37°53' E 023°33'0 0.1
2016-Aug-22 01:32N 37°53' E 023°33'0 0.1
2016-Aug-22 00:32N 37°53' E 023°33'0 0.0
2016-Aug-21 23:32N 37°53' E 023°33'0 0.0
2016-Aug-21 22:32N 37°53' E 023°33'0 0.1
2016-Aug-21 21:32N 37°53' E 023°33'1 0.8
2016-Aug-21 20:33N 37°52' E 023°33'1312.6
2016-Aug-21 19:34N 37°43' E 023°44'1514.8
2016-Aug-21 18:33N 37°28' E 023°45'1616.0
2016-Aug-21 17:33N 37°13' E 023°41'1515.3
2016-Aug-21 16:33N 36°58' E 023°36'34914.5
2016-Aug-20 16:33N 36°30' E 016°22'2015.2
2016-Aug-20 15:15N 36°30' E 015°58'1215.3
2016-Aug-20 14:29N 36°31' E 015°43'1415.2
2016-Aug-20 13:33N 36°32' E 015°25'1413.8
2016-Aug-20 12:32N 36°32' E 015°08'1414.7
2016-Aug-20 11:33N 36°35' E 014°51'1515.2
2016-Aug-20 10:34N 36°39' E 014°33'1515.4
2016-Aug-20 09:33N 36°45' E 014°15'1515.4
2016-Aug-20 08:34N 36°51' E 013°57'1616.0
2016-Aug-20 07:34N 36°57' E 013°39'1616.2
2016-Aug-20 06:33N 37°03' E 013°20'1615.8
2016-Aug-20 05:33N 37°10' E 013°02'1615.7
2016-Aug-20 04:33N 37°17' E 012°44'1615.4
2016-Aug-20 03:33N 37°25' E 012°28'1515.4
2016-Aug-20 02:33N 37°34' E 012°12'1616.1
2016-Aug-20 01:33N 37°43' E 011°55'1515.4
2016-Aug-20 00:33N 37°52' E 011°39'1615.6
2016-Aug-19 23:33N 38°01' E 011°23'1615.9
2016-Aug-19 22:33N 38°09' E 011°06'1515.5
2016-Aug-19 21:34N 38°17' E 010°49'1615.5
2016-Aug-19 20:33N 38°25' E 010°32'1515.3
2016-Aug-19 19:34N 38°33' E 010°16'1515.1
2016-Aug-19 18:33N 38°41' E 009°59'1615.5
2016-Aug-19 17:33N 38°50' E 009°42'1615.8
2016-Aug-19 16:33N 38°58' E 009°25'1515.3
2016-Aug-19 15:33N 39°06' E 009°09'7 7.2
2016-Aug-19 14:32N 39°13' E 009°04'0 0.0
2016-Aug-19 13:32N 39°13' E 009°04'0 0.0
2016-Aug-19 12:32N 39°13' E 009°04'  
Track history (hours):
 
Tides and Currents Weather Stations Pressure Air Temp Water Temp Dewpoint Dewpoint Depression Visibility Wind Speed Wind Dir Waves Ship Positions

Roza A

Last reported at 2016-Aug-29 12:20 UTC. Time now 2016-Aug-30 20:48 UTC.
Position N 33°12' E 032°03'.

Length 169 m; draft 6.6 m.

Type: Ship (hazmat cat A). MMSI: 271001057.

Date/timePositionNaut miles runAvg speedWind from/ knotsBaromVisibWave heightAir tempDewpointWater temp
2016-Aug-29 12:20N 33°12' E 032°03'10315.1
2016-Aug-29 05:32N 34°19' E 033°37'  
2016-Aug-26 16:24N 36°44' E 034°39'0 0.0
2016-Aug-26 11:33N 36°44' E 034°39'0 0.0
2016-Aug-26 10:34N 36°44' E 034°39'9415.3
2016-Aug-26 04:25N 35°10' E 034°58'1416.2
2016-Aug-26 03:33N 34°57' E 035°00'1615.9
2016-Aug-26 02:31N 34°41' E 035°04'1615.8
2016-Aug-26 01:29N 34°24' E 035°07'1415.4
2016-Aug-26 00:33N 34°10' E 035°09'1514.8
2016-Aug-25 23:33N 33°56' E 035°13'1612.6
2016-Aug-25 22:18N 33°55' E 035°32'30 2.0
2016-Aug-25 07:24N 33°50' E 034°57'4315.0
2016-Aug-25 04:33N 33°32' E 034°10'1615.2
2016-Aug-25 03:30N 33°25' E 033°53'1515.5
2016-Aug-25 02:34N 33°19' E 033°37'1515.0
2016-Aug-25 01:33N 33°12' E 033°21'1515.0
2016-Aug-25 00:32N 33°06' E 033°04'1815.3
2016-Aug-24 23:21N 32°58' E 032°44'1415.5
2016-Aug-24 22:27N 32°53' E 032°29'1715.6
2016-Aug-24 21:22N 32°46' E 032°11'1315.5
2016-Aug-24 20:33N 32°40' E 031°57'1515.2
2016-Aug-24 19:33N 32°34' E 031°41'1515.0
2016-Aug-24 18:33N 32°27' E 031°25'1615.4
2016-Aug-24 17:33N 32°21' E 031°08'2315.6
2016-Aug-24 16:04N 32°11' E 030°44'915.6
2016-Aug-24 15:28N 32°08' E 030°33'1715.3
2016-Aug-24 14:22N 31°57' E 030°18'1215.1
2016-Aug-24 13:33N 31°49' E 030°07'42 2.8
2016-Aug-23 22:17N 31°51' E 029°18'1114.3
2016-Aug-23 21:31N 32°01' E 029°11'1414.6
2016-Aug-23 20:33N 32°13' E 029°02'34615.0
2016-Aug-22 21:30N 36°31' E 024°23'1314.2
2016-Aug-22 20:33N 36°41' E 024°12'1515.0
2016-Aug-22 19:33N 36°55' E 024°05'1514.9
2016-Aug-22 18:33N 37°08' E 023°58'1514.7
2016-Aug-22 17:33N 37°22' E 023°51'1514.6
2016-Aug-22 16:33N 37°36' E 023°44'1515.3
2016-Aug-22 15:33N 37°50' E 023°37'8 7.6
2016-Aug-22 14:33N 37°57' E 023°35'0 0.0
2016-Aug-22 13:31N 37°57' E 023°35'0 0.0
2016-Aug-22 12:28N 37°57' E 023°35'0 0.0
2016-Aug-22 11:31N 37°57' E 023°35'0 0.0
2016-Aug-22 10:31N 37°57' E 023°35'0 0.0
2016-Aug-22 09:31N 37°57' E 023°35'0 0.0
2016-Aug-22 08:31N 37°57' E 023°35'0 0.0
2016-Aug-22 07:31N 37°57' E 023°35'0 0.0
2016-Aug-22 06:31N 37°57' E 023°35'0 0.0
2016-Aug-22 05:31N 37°57' E 023°35'1 1.3
2016-Aug-22 04:33N 37°56' E 023°35'3 3.2
2016-Aug-22 03:33N 37°53' E 023°33'0 0.1
2016-Aug-22 02:32N 37°53' E 023°33'0 0.1
2016-Aug-22 01:32N 37°53' E 023°33'0 0.1
2016-Aug-22 00:32N 37°53' E 023°33'0 0.0
2016-Aug-21 23:32N 37°53' E 023°33'0 0.0
2016-Aug-21 22:32N 37°53' E 023°33'0 0.1
2016-Aug-21 21:32N 37°53' E 023°33'1 0.8
2016-Aug-21 20:33N 37°52' E 023°33'1312.6
2016-Aug-21 19:34N 37°43' E 023°44'1514.8
2016-Aug-21 18:33N 37°28' E 023°45'1616.0
2016-Aug-21 17:33N 37°13' E 023°41'1515.3
2016-Aug-21 16:33N 36°58' E 023°36'34914.5
2016-Aug-20 16:33N 36°30' E 016°22'2015.2
2016-Aug-20 15:15N 36°30' E 015°58'1215.3
2016-Aug-20 14:29N 36°31' E 015°43'1415.2
2016-Aug-20 13:33N 36°32' E 015°25'1413.8
2016-Aug-20 12:32N 36°32' E 015°08'1414.7
2016-Aug-20 11:33N 36°35' E 014°51'1515.2
2016-Aug-20 10:34N 36°39' E 014°33'1515.4
2016-Aug-20 09:33N 36°45' E 014°15'1515.4
2016-Aug-20 08:34N 36°51' E 013°57'1616.0
2016-Aug-20 07:34N 36°57' E 013°39'1616.2
2016-Aug-20 06:33N 37°03' E 013°20'1615.8
2016-Aug-20 05:33N 37°10' E 013°02'1615.7
2016-Aug-20 04:33N 37°17' E 012°44'1615.4
2016-Aug-20 03:33N 37°25' E 012°28'1515.4
2016-Aug-20 02:33N 37°34' E 012°12'1616.1
2016-Aug-20 01:33N 37°43' E 011°55'1515.4
2016-Aug-20 00:33N 37°52' E 011°39'1615.6
2016-Aug-19 23:33N 38°01' E 011°23'1615.9
2016-Aug-19 22:33N 38°09' E 011°06'1515.5
2016-Aug-19 21:34N 38°17' E 010°49'1615.5
2016-Aug-19 20:33N 38°25' E 010°32'1515.3
2016-Aug-19 19:34N 38°33' E 010°16'1515.1
2016-Aug-19 18:33N 38°41' E 009°59'1615.5
2016-Aug-19 17:33N 38°50' E 009°42'1615.8
2016-Aug-19 16:33N 38°58' E 009°25'1515.3
2016-Aug-19 15:33N 39°06' E 009°09'7 7.2
2016-Aug-19 14:32N 39°13' E 009°04'0 0.0
2016-Aug-19 13:32N 39°13' E 009°04'0 0.0
2016-Aug-19 12:32N 39°13' E 009°04'  

Dump ship's entire track history